Weather observations for the past three days for
Duncan, Halliburton Field Airport
Imperial (Metric)
Date Time (cdt) Wind (mph) Vis. (mi.) Weather Sky Cond. Temperature (ºF) Relative Humidity Wind Chill (°F) Heat Index (°F) Pressure Precipitation (in)
Air Dwpt 6 hour altimeter (in) sea level (mb) 1 hr 3 hr 6 hr
Max. Min.
08 04:35 Calm 10.00 Fair CLR 51.8 50 94% 29.94 0.0
08 04:15 SE 3 10.00 Fair CLR 51.8 50 94% 29.94 0.0
08 03:55 SE 5 7.00 Fair CLR 51.8 50 94% 29.94 0.0
08 03:35 S 5 10.00 Fair CLR 51.8 50 94% 29.94 0.0
08 03:15 S 6 10.00 Fair CLR 51.8 50 94% 29.95 0.0
08 02:55 SE 3 10.00 Fair CLR 53.6 50 88% 29.95 0.0
08 02:35 S 5 10.00 Fair CLR 53.6 50 88% 29.96 0.0
08 02:15 S 6 10.00 Fair CLR 53.6 50 88% 29.96 0.0
08 01:55 S 7 5.00 Fog/Mist CLR 53.6 50 88% 29.97 0.0
08 01:35 SE 6 3.50 Fog/Mist CLR 53.6 50 88% 29.97 0.0
08 01:15 SE 6 4.00 Fair with Haze CLR 55.4 50 82% 29.98 0.0
08 00:55 SE 7 5.00 Fair with Haze CLR 55.4 50 82% 29.98 0.0
08 00:35 SE 6 7.00 Fair CLR 55.4 48.2 77% 29.98 0.0
08 00:15 SE 6 7.00 Fair CLR 55.4 48.2 77% 29.98 0.0
07 23:55 SE 6 7.00 Fair CLR 57.2 48.2 72% 29.99 0.0
07 23:35 S 6 10.00 Fair CLR 57.2 48.2 72% 29.99 0.0
07 23:15 S 6 10.00 Fair CLR 59 46.4 63% 29.99 0.0
07 22:55 SE 7 10.00 Fair CLR 60.8 46.4 59% 29.99 0.0
07 22:35 E 5 10.00 Fair CLR 59 46.4 63% 29.98 0.0
07 22:15 S 8 10.00 Fair CLR 60.8 46.4 59% 29.98 0.0
07 21:55 S 8 10.00 Fair CLR 62.6 46.4 56% 29.97 0.0
07 21:35 SE 7 10.00 Fair CLR 62.6 46.4 56% 29.97 0.0
07 21:15 S 7 10.00 Fair CLR 64.4 44.6 49% 29.97 0.0
07 20:55 S 7 5.00 Fair with Haze CLR 66.2 44.6 46% 29.96 0.0
07 20:15 SE 5 10.00 Fair CLR 69.8 44.6 40% 29.95 0.0
07 19:55 S 5 10.00 Fair CLR 71.6 42.8 36% 29.96 0.0
07 19:35 S 7 10.00 Fair CLR 73.4 42.8 33% 29.96 0.0
07 19:15 S 9 10.00 Fair CLR 73.4 42.8 33% 29.96 0.0
07 18:55 S 3 10.00 Fair CLR 73.4 41 31% 29.96 0.0
07 18:35 S 6 10.00 Fair CLR 75.2 41 29% 77 29.95 0.0
07 18:15 E 3 10.00 Fair CLR 75.2 41 29% 77 29.95 0.0
07 17:55 S 6 10.00 Fair CLR 75.2 41 29% 77 29.96 0.0
07 17:35 Calm 10.00 Fair CLR 75.2 41 29% 77 29.96 0.0
07 17:15 SW 5 10.00 Fair CLR 73.4 41 31% 29.97 0.0
07 16:55 Calm 10.00 Fair CLR 73.4 39.2 29% 29.97 0.0
07 16:35 W 8 10.00 Fair CLR 75.2 42.8 31% 77 29.98 0.0
07 16:15 W 7 10.00 Fair CLR 73.4 41 31% 29.99 0.0
07 15:55 NW 6 10.00 Fair CLR 73.4 41 31% 30 0.0
07 15:35 NW 5 10.00 Fair CLR 71.6 41 33% 30 0.0
07 15:15 NW 5 10.00 Fair CLR 71.6 42.8 36% 30.01 0.0
07 14:55 W 7 10.00 Fair CLR 71.6 44.6 38% 30.02 0.0
07 14:35 W 6 10.00 Fair CLR 71.6 42.8 36% 30.04 0.0
07 14:15 N 6 10.00 Fair CLR 69.8 42.8 38% 30.04 0.0
07 13:55 W 9 10.00 Fair CLR 69.8 42.8 38% 30.06 0.0
07 13:35 SW 9 10.00 Fair CLR 69.8 44.6 40% 30.07 0.0
07 13:15 SW 7 10.00 Fair CLR 68 44.6 43% 30.08 0.0
07 12:55 SW 7 10.00 Fair CLR 68 44.6 43% 30.09 0.0
07 12:35 NW 6 10.00 Fair CLR 66.2 42.8 43% 30.1 0.0
07 12:15 NW 5 10.00 Fair CLR 66.2 42.8 43% 30.11 0.0
07 11:55 W 6 10.00 Fair CLR 64.4 42.8 46% 30.12 0.0
07 11:35 SW 5 10.00 Fair CLR 64.4 42.8 46% 30.12 0.0
07 11:15 W 5 10.00 Fair CLR 62.6 42.8 49% 30.13 0.0
07 10:55 W 3 10.00 Fair CLR 62.6 42.8 49% 30.14 0.0
07 10:35 Calm 10.00 Fair CLR 60.8 41 48% 30.14 0.0
07 10:15 Calm 10.00 Fair CLR 60.8 42.8 52% 30.15 0.0
07 09:55 SW 5 10.00 Fair CLR 59 42.8 55% 30.15 0.0
07 09:35 Calm 10.00 Fair CLR 59 42.8 55% 30.15 0.0
07 09:15 W 3 10.00 Fair CLR 57.2 41 55% 30.16 0.0
07 08:55 NW 3 10.00 Fair CLR 55.4 41 59% 30.16 0.0
07 08:35 NW 6 10.00 Fair CLR 53.6 42.8 67% 30.16 0.0
07 08:15 NW 6 10.00 Fair CLR 51.8 42.8 72% 30.16 0.0
07 07:55 NW 6 10.00 Fair CLR 50 42.8 76% 48 30.16 0.0
07 07:35 NW 6 10.00 Fair CLR 46.4 42.8 87% 44 30.16 0.0
07 07:15 NW 6 10.00 Fair CLR 46.4 42.8 87% 44 30.15 0.0
07 06:55 NW 6 10.00 Partly Cloudy SCT095 46.4 42.8 87% 44 30.14 0.0
07 06:35 NW 6 10.00 Fair CLR 46.4 42.8 87% 44 30.13 0.0
07 06:15 NW 5 10.00 Fair CLR 44.6 42.8 93% 43 30.13 0.0
07 05:55 NW 3 10.00 Fair CLR 46.4 42.8 87% 30.12 0.0
07 05:35 NW 5 10.00 Fair CLR 46.4 42.8 87% 45 30.12 0.0
07 05:15 NW 5 10.00 Partly Cloudy SCT100 46.4 42.8 87% 45 30.12 0.0
07 04:55 NW 3 10.00 Mostly Cloudy BKN110 46.4 42.8 87% 30.12 0.0
07 04:35 Calm 10.00 Overcast OVC110 48.2 42.8 82% 30.12 0.0
07 04:15 W 3 10.00 Mostly Cloudy BKN110 46.4 42.8 87% 30.11 0.0
07 03:55 N 5 10.00 Partly Cloudy SCT110 48.2 42.8 82% 47 30.09 0.0
07 03:35 N 5 10.00 Fair CLR 48.2 42.8 82% 47 30.09 0.0
07 03:15 N 7 10.00 Fair CLR 50 42.8 76% 48 30.09 0.0
07 02:55 N 8 10.00 Fair CLR 50 42.8 76% 47 30.11 0.0
07 02:35 N 8 10.00 Fair CLR 50 42.8 76% 47 30.11 0.0
07 02:15 N 7 10.00 Fair CLR 50 42.8 76% 48 30.11 0.0
07 01:55 N 7 10.00 Fair CLR 50 42.8 76% 48 30.12 0.0
07 01:35 N 8 10.00 Fair CLR 50 42.8 76% 47 30.11 0.0
07 01:15 N 7 10.00 Fair CLR 50 42.8 76% 48 30.11 0.0
07 00:55 NE 7 10.00 Fair CLR 50 42.8 76% 48 30.11 0.0
07 00:35 N 7 10.00 Fair CLR 50 42.8 76% 48 30.11 0.0
07 00:15 N 6 10.00 Fair CLR 51.8 42.8 72% 30.11 0.0
06 23:55 N 6 10.00 Fair CLR 51.8 42.8 72% 30.09 0.0
06 23:35 NE 3 10.00 Fair CLR 53.6 42.8 67% 30.09 0.0
06 23:15 E 7 10.00 Fair CLR 53.6 42.8 67% 30.08 0.0
06 22:55 E 6 10.00 Fair CLR 53.6 44.6 72% 30.08 0.0
06 22:15 NE 6 10.00 Fair CLR 55.4 44.6 67% 30.07 0.0
06 21:55 NE 6 10.00 Fair CLR 55.4 44.6 67% 30.06 0.0
06 21:35 NE 8 10.00 Fair CLR 57.2 44.6 63% 30.05 0.0
06 21:15 NE 8 10.00 Fair CLR 57.2 44.6 63% 30.04 0.0
06 20:55 NE 7 10.00 Fair CLR 59 44.6 59% 30.03 0.0
06 20:35 NE 8 10.00 Fair CLR 59 44.6 59% 30.02 0.0
06 20:15 NE 8 10.00 Fair CLR 60.8 44.6 55% 30.02 0.0
06 19:55 NE 10 G 16 10.00 Fair CLR 62.6 44.6 52% 30.01 0.0
06 19:35 NE 13 10.00 Partly Cloudy SCT049 62.6 42.8 49% 30.01 0.0
06 19:15 NE 9 10.00 Partly Cloudy SCT049 64.4 42.8 46% 30 0.0
06 18:55 NE 9 10.00 Fair CLR 64.4 44.6 49% 29.99 0.0
06 18:35 NE 12 10.00 Fair CLR 66.2 42.8 43% 29.99 0.0
06 17:55 E 13 G 18 10.00 Partly Cloudy SCT049 66.2 44.6 46% 29.98 0.0
06 17:35 NE 14 G 17 10.00 Mostly Cloudy BKN049 66.2 44.6 46% 29.98 0.0
06 17:15 NE 10 10.00 Mostly Cloudy BKN047 66.2 44.6 46% 29.98 0.0
06 16:35 N 16 G 21 10.00 Partly Cloudy SCT045 64.4 44.6 49% 29.98 0.0
06 16:15 NE 13 G 17 10.00 Partly Cloudy SCT043 66.2 44.6 46% 29.99 0.0
06 15:55 NE 14 10.00 Partly Cloudy SCT041 66.2 46.4 49% 29.99 0.0
06 15:35 NE 9 10.00 Partly Cloudy SCT041 64.4 46.4 52% 29.99 0.0
06 15:15 NE 7 G 20 10.00 Fair CLR 64.4 44.6 49% 29.99 0.0
06 14:55 NE 10 G 20 10.00 Fair CLR 62.6 44.6 52% 29.99 0.0
06 14:35 NE 13 10.00 Fair CLR 62.6 44.6 52% 29.99 0.0
06 14:15 NE 16 G 22 10.00 Fair CLR 60.8 44.6 55% 30 0.0
06 13:55 N 17 G 21 10.00 Partly Cloudy SCT120 60.8 44.6 55% 29.99 0.0
06 13:35 N 16 10.00 Partly Cloudy SCT120 59 44.6 59% 29.98 0.0
06 13:15 NE 16 G 26 10.00 Fair CLR 57.2 44.6 63% 29.99 0.0
06 12:55 NE 17 10.00 Fair CLR 57.2 42.8 59% 30 0.0
06 12:35 NE 14 G 20 10.00 Fair CLR 57.2 42.8 59% 30.02 0.0
06 12:15 NE 12 G 18 10.00 Fair CLR 55.4 42.8 63% 30.04 0.0
06 11:55 NE 14 10.00 Partly Cloudy SCT110 53.6 41 63% 30.05 0.0
06 11:35 NE 15 G 22 10.00 Mostly Cloudy SCT027 BKN110 53.6 41 63% 30.05 0.0
06 11:15 NE 10 10.00 Mostly Cloudy BKN027 BKN120 53.6 41 63% 30.05 0.0
06 10:55 E 15 G 20 10.00 Mostly Cloudy BKN027 53.6 41 63% 30.04 0.0
06 10:35 NE 14 G 20 10.00 Mostly Cloudy BKN027 51.8 41 67% 30.05 0.0
06 10:15 NE 9 G 17 10.00 Partly Cloudy SCT027 51.8 41 67% 30.05 0.0
06 09:55 NE 15 G 21 10.00 Partly Cloudy SCT027 51.8 39.2 62% 30.03 0.0
06 09:35 NE 16 G 23 10.00 Fair CLR 51.8 39.2 62% 30.01 0.0
06 09:15 NE 16 10.00 Fair CLR 51.8 39.2 62% 30.01 0.0
06 08:55 NE 21 G 29 10.00 Fair and Breezy CLR 51.8 39.2 62% 30 0.0
06 08:35 NE 21 G 30 10.00 Fair and Breezy CLR 51.8 39.2 62% 29.99 0.0
06 08:15 NE 20 G 29 10.00 Fair CLR 51.8 39.2 62% 29.99 0.0
06 07:55 NE 14 10.00 Fair CLR 50 39.2 67% 45 29.98 0.0
06 07:35 NE 18 G 28 10.00 Fair CLR 50 37.4 62% 44 29.97 0.0
06 06:55 NE 15 G 24 10.00 Fair CLR 50 37.4 62% 45 29.96 0.0
06 06:35 NE 15 G 22 10.00 Partly Cloudy SCT024 50 39.2 67% 45 29.95 0.0
06 06:15 N 16 G 22 10.00 Mostly Cloudy BKN024 50 39.2 67% 45 29.95 0.0
06 05:55 N 15 G 20 10.00 Overcast OVC023 50 39.2 67% 45 29.96 0.0
06 05:35 N 17 G 23 10.00 Overcast OVC023 50 39.2 67% 45 29.96 0.0
06 05:15 N 15 G 21 10.00 Overcast OVC023 50 39.2 67% 45 29.94 0.0
06 04:55 NE 10 G 21 10.00 Overcast OVC023 50 37.4 62% 46 29.94 0.0
06 04:35 N 12 G 22 10.00 Overcast OVC023 50 39.2 67% 46 29.94 0.0
06 04:15 N 13 10.00 Overcast OVC023 50 39.2 67% 46 29.94 0.0
06 03:55 N 13 G 17 10.00 Overcast OVC021 50 41 71% 46 29.94 0.0
06 03:35 N 10 10.00 Overcast OVC019 50 41 71% 46 29.93 0.0
06 03:15 NE 14 G 18 10.00 Overcast OVC019 50 41 71% 45 29.92 0.0
06 02:55 N 12 10.00 Overcast OVC019 50 42.8 76% 46 29.9 0.0
06 02:35 NE 13 G 20 10.00 Overcast OVC017 50 42.8 76% 46 29.88 0.0
06 02:15 N 10 G 18 10.00 Overcast OVC015 50 42.8 76% 46 29.89 0.0
06 01:55 NE 13 10.00 Overcast OVC015 50 42.8 76% 46 29.88 0.0
06 01:35 NE 16 10.00 Overcast OVC015 50 44.6 82% 45 29.9 0.0
06 01:15 NE 14 G 21 10.00 Overcast OVC017 50 42.8 76% 45 29.9 0.0
06 00:55 NE 16 10.00 Overcast OVC017 50 42.8 76% 45 29.88 0.0
06 00:35 NE 16 G 21 10.00 Overcast OVC017 50 42.8 76% 45 29.88 0.0
06 00:15 NE 15 G 23 10.00 Overcast OVC017 51.8 42.8 72% 29.88 0.0
05 23:55 NE 15 G 18 10.00 Overcast OVC019 51.8 42.8 72% 29.89 0.0
05 23:35 NE 14 G 17 10.00 Mostly Cloudy BKN019 51.8 44.6 77% 29.88 0.0
05 23:15 NE 14 G 23 10.00 Overcast OVC019 51.8 42.8 72% 29.89 0.0
05 22:55 NE 14 10.00 Mostly Cloudy BKN021 51.8 42.8 72% 29.88 0.0
05 22:35 NE 10 G 21 10.00 Partly Cloudy SCT021 51.8 42.8 72% 29.88 0.0
05 22:15 N 18 G 24 10.00 Mostly Cloudy BKN021 51.8 42.8 72% 29.87 0.0
05 21:55 NE 13 10.00 Overcast OVC021 53.6 44.6 72% 29.86 0.0
05 21:35 N 17 G 22 10.00 Overcast OVC021 53.6 44.6 72% 29.86 0.0
05 21:15 N 16 G 21 10.00 Overcast OVC021 53.6 44.6 72% 29.85 0.0
05 20:55 N 14 G 18 10.00 Overcast OVC021 53.6 44.6 72% 29.84 0.0
05 20:35 N 15 10.00 Overcast OVC021 53.6 44.6 72% 29.82 0.0
05 20:15 N 13 G 20 10.00 Overcast OVC021 55.4 44.6 67% 29.81 0.0
05 19:55 N 20 G 24 10.00 Overcast OVC021 55.4 46.4 72% 29.8 0.0
05 19:35 N 15 10.00 Overcast OVC021 55.4 46.4 72% 29.8 0.0
05 19:15 NE 18 10.00 Overcast OVC021 55.4 46.4 72% 29.79 0.0
05 18:55 N 10 G 16 10.00 Overcast OVC021 57.2 46.4 67% 29.79 0.0
05 18:35 N 14 10.00 Overcast OVC021 57.2 46.4 67% 29.8 0.0
05 18:15 N 17 G 23 10.00 Overcast OVC021 57.2 46.4 67% 29.79 0.0
05 17:55 N 17 10.00 Overcast OVC021 57.2 48.2 72% 29.79 0.0
05 17:35 N 16 10.00 Overcast OVC021 57.2 48.2 72% 29.79 0.0
05 17:15 N 17 G 21 10.00 Overcast OVC021 59 48.2 68% 29.79 0.0
05 16:55 N 16 G 21 10.00 Overcast OVC023 59 50 72% 29.78 0.0
05 16:35 N 15 G 20 10.00 Overcast OVC023 60.8 50 68% 29.77 0.0
05 16:15 N 15 10.00 Overcast OVC023 62.6 50 64% 29.77 0.0
05 15:55 NW 16 G 22 10.00 Mostly Cloudy BKN023 62.6 51.8 68% 29.76 0.0
05 15:35 N 16 10.00 Mostly Cloudy BKN023 64.4 51.8 64% 29.76 0.0
05 15:15 N 14 G 18 10.00 Partly Cloudy SCT021 64.4 51.8 64% 29.75 0.0
05 14:55 N 17 G 23 10.00 Partly Cloudy SCT021 62.6 51.8 68% 29.76 0.0
05 14:35 N 16 G 23 10.00 Partly Cloudy SCT021 64.4 51.8 64% 29.75 0.0
05 14:15 N 17 G 26 7.00 Partly Cloudy SCT021 66.2 53.6 64% 29.74 0.0
05 13:55 N 20 10.00 Fair CLR 64.4 53.6 68% 29.72 0.0
05 13:35 N 18 G 25 10.00 Fair CLR 64.4 53.6 68% 29.71 0.0
05 13:15 NW 20 10.00 Fair CLR 66.2 55.4 68% 29.73 0.0
05 12:55 N 17 10.00 Fair CLR 66.2 55.4 68% 29.71 0.0
05 12:35 N 20 10.00 Fair CLR 69.8 57.2 64% 29.68 0.0
05 12:15 N 18 G 23 10.00 Fair CLR 71.6 59 65% 29.68 0.0
05 11:55 NW 12 10.00 Fair CLR 75.2 51.8 44% 78 29.66 0.0
05 11:35 NW 14 10.00 Fair CLR 75.2 51.8 44% 78 29.65 0.0
05 11:15 NW 16 G 20 10.00 Fair CLR 77 53.6 44% 78 29.64 0.0
05 10:55 W 12 10.00 Fair CLR 77 57.2 51% 79 29.63 0.0
05 10:15 SW 12 10.00 Fair CLR 75.2 62.6 65% 77 29.62 0.0
05 09:55 SW 10 10.00 Fair CLR 73.4 62.6 69% 29.6 0.0
05 09:35 S 10 10.00 Fair CLR 73.4 62.6 69% 29.6 0.0
05 09:15 S 12 10.00 Fair CLR 71.6 62.6 73% 29.6 0.0
05 08:55 S 12 10.00 Fair CLR 69.8 62.6 78% 29.6 0.0
05 08:35 S 8 10.00 Fair CLR 69.8 62.6 78% 29.59 0.0
05 08:15 S 9 10.00 Fair CLR 69.8 62.6 78% 29.6 0.0
05 07:55 S 8 10.00 Fair CLR 69.8 62.6 78% 29.59 0.0
05 07:35 S 7 10.00 Fair CLR 69.8 62.6 78% 29.6 0.0
05 07:15 S 9 10.00 Fair CLR 68 62.6 83% 29.59 0.0
05 06:55 S 12 10.00 Fair CLR 69.8 62.6 78% 29.57 0.0
05 06:35 S 10 10.00 Fair CLR 69.8 62.6 78% 29.57 0.0
05 06:15 S 9 10.00 Fair CLR 68 62.6 83% 29.56 0.0
05 05:55 S 9 10.00 Fair CLR 68 62.6 83% 29.56 0.0
05 05:35 S 10 10.00 Fair CLR 68 64.4 88% 29.56 0.0
05 05:15 S 9 10.00 Fair CLR 68 62.6 83% 29.56 0.0
05 04:55 S 8 10.00 Fair CLR 68 62.6 83% 29.56 0.0
Date Time (cdt) Wind (mph) Vis. (mi.) Weather Sky Cond. Air Dwpt Max. Min. Relative Humidity Wind Chill (°F) Heat Index (°F) altimeter (in) sea level (mb) 1 hr 3 hr 6 hr
6 hour
Temperature (ºF) Pressure Precipitation (in)